createdAt,value
2017-10-15T00:01:53.833Z,90.30
2017-10-15T00:04:22.603Z,90.20
2017-10-15T00:06:50.647Z,90.10
2017-10-15T00:09:18.425Z,90.20
2017-10-15T00:11:46.944Z,90.10
2017-10-15T00:14:15.632Z,90.10
2017-10-15T00:16:45.910Z,90.20
2017-10-15T00:19:15.213Z,90.20
2017-10-15T00:21:43.376Z,90.30
2017-10-15T00:24:13.265Z,90.40
2017-10-15T00:26:42.128Z,90.40
2017-10-15T00:29:10.014Z,90.40
2017-10-15T00:31:38.866Z,90.50
2017-10-15T00:34:07.106Z,90.50
2017-10-15T00:36:34.597Z,90.40
2017-10-15T00:39:02.090Z,90.40
2017-10-15T00:41:29.551Z,90.40
2017-10-15T00:43:57.033Z,90.40
2017-10-15T00:46:24.496Z,90.40
2017-10-15T00:48:51.978Z,90.30
2017-10-15T00:51:19.441Z,90.30
2017-10-15T00:53:46.895Z,90.30
2017-10-15T00:56:14.351Z,90.20
2017-10-15T00:58:41.806Z,90.20
2017-10-15T01:01:10.051Z,90.30
2017-10-15T01:03:37.510Z,90.30
2017-10-15T01:06:04.974Z,90.20
2017-10-15T01:08:32.438Z,90.10
2017-10-15T01:10:59.927Z,90.00
2017-10-15T01:13:27.398Z,90.10
2017-10-15T01:15:54.895Z,90.10
2017-10-15T01:18:22.390Z,90.00
2017-10-15T01:20:49.844Z,90.20
2017-10-15T01:23:17.314Z,90.20
2017-10-15T01:25:44.791Z,90.30
2017-10-15T01:28:12.251Z,90.40
2017-10-15T01:30:39.719Z,90.50
2017-10-15T01:33:07.176Z,90.70
2017-10-15T01:35:34.675Z,90.80
2017-10-15T01:38:02.161Z,90.80
2017-10-15T01:40:29.613Z,91.00
2017-10-15T01:42:57.071Z,91.10
2017-10-15T01:45:24.570Z,91.10
2017-10-15T01:47:52.043Z,91.30
2017-10-15T01:50:19.512Z,91.40
2017-10-15T01:52:46.981Z,91.40
2017-10-15T01:55:15.210Z,91.60
2017-10-15T01:57:42.667Z,91.60
2017-10-15T02:00:10.115Z,91.70
2017-10-15T02:02:37.606Z,91.70
2017-10-15T02:05:05.061Z,91.60
2017-10-15T02:07:32.546Z,91.70
2017-10-15T02:09:59.999Z,91.80
2017-10-15T02:12:28.260Z,91.90
2017-10-15T02:14:56.491Z,91.90
2017-10-15T02:17:23.954Z,91.90
2017-10-15T02:19:51.416Z,91.80
2017-10-15T02:22:18.879Z,91.90
2017-10-15T02:24:46.339Z,91.90
2017-10-15T02:27:13.822Z,91.90
2017-10-15T02:29:41.308Z,91.90
2017-10-15T02:32:09.526Z,92.00
2017-10-15T02:34:36.995Z,92.00
2017-10-15T02:37:04.463Z,91.90
2017-10-15T02:39:31.949Z,91.90
2017-10-15T02:42:00.179Z,91.80
2017-10-15T02:44:27.655Z,91.70
2017-10-15T02:46:55.121Z,91.90
2017-10-15T02:49:22.573Z,92.00
2017-10-15T02:51:50.031Z,91.80
2017-10-15T02:54:17.496Z,91.80
2017-10-15T02:56:45.731Z,91.90
2017-10-15T02:59:13.197Z,91.90
2017-10-15T03:01:40.651Z,91.90
2017-10-15T03:04:08.116Z,92.00
2017-10-15T03:06:35.571Z,92.00
2017-10-15T03:09:03.043Z,91.90
2017-10-15T03:11:30.511Z,91.90
2017-10-15T03:13:58.734Z,92.00
2017-10-15T03:16:26.203Z,92.00
2017-10-15T03:18:53.698Z,92.00
2017-10-15T03:21:21.171Z,92.00
2017-10-15T03:23:49.411Z,92.10
2017-10-15T03:26:16.891Z,92.10
2017-10-15T03:28:44.355Z,92.10
2017-10-15T03:31:11.872Z,92.10
2017-10-15T03:33:39.351Z,92.20
2017-10-15T03:36:06.812Z,92.20
2017-10-15T03:38:34.265Z,92.20
2017-10-15T03:41:01.734Z,92.20
2017-10-15T03:43:29.208Z,92.20
2017-10-15T03:45:56.767Z,92.10
2017-10-15T03:48:24.218Z,92.10
2017-10-15T03:50:51.693Z,92.10
2017-10-15T03:53:19.152Z,92.20
2017-10-15T03:55:46.651Z,92.20
2017-10-15T03:58:14.730Z,92.20
2017-10-15T04:00:42.207Z,92.10
2017-10-15T04:03:10.455Z,92.00
2017-10-15T04:05:37.943Z,92.00
2017-10-15T04:08:06.201Z,92.00
2017-10-15T04:10:33.678Z,92.00
2017-10-15T04:13:01.956Z,92.10
2017-10-15T04:15:29.435Z,92.10
2017-10-15T04:17:59.343Z,92.10
2017-10-15T04:20:26.932Z,92.00
2017-10-15T04:22:54.429Z,92.10
2017-10-15T04:25:21.902Z,92.10
2017-10-15T04:27:49.368Z,92.00
2017-10-15T04:30:16.828Z,92.10
2017-10-15T04:32:44.312Z,92.00
2017-10-15T04:35:11.787Z,91.90
2017-10-15T04:37:39.286Z,91.90
2017-10-15T04:40:06.762Z,91.80
2017-10-15T04:42:34.249Z,91.90
2017-10-15T04:45:01.747Z,92.20
2017-10-15T04:47:29.218Z,91.80
2017-10-15T04:49:56.753Z,91.60
2017-10-15T04:52:24.232Z,91.70
2017-10-15T04:54:52.488Z,91.80
2017-10-15T04:57:19.970Z,91.80
2017-10-15T04:59:47.433Z,91.90
2017-10-15T05:02:15.183Z,91.90
2017-10-15T05:04:42.647Z,91.90
2017-10-15T05:07:10.115Z,91.90
2017-10-15T05:09:37.619Z,92.00
2017-10-15T05:12:05.102Z,92.00
2017-10-15T05:14:33.371Z,92.00
2017-10-15T05:17:00.844Z,92.00
2017-10-15T05:19:28.354Z,91.90
2017-10-15T05:21:55.838Z,91.90
2017-10-15T05:24:23.318Z,92.00
2017-10-15T05:26:50.786Z,91.90
2017-10-15T05:29:18.242Z,91.90
2017-10-15T05:31:45.713Z,91.80
2017-10-15T05:34:13.191Z,91.60
2017-10-15T05:36:40.658Z,91.60
2017-10-15T05:39:08.204Z,91.80
2017-10-15T05:41:35.688Z,91.70
2017-10-15T05:44:03.166Z,91.70
2017-10-15T05:46:31.423Z,91.70
2017-10-15T05:48:58.916Z,91.70
2017-10-15T05:51:26.445Z,91.80
2017-10-15T05:53:53.924Z,91.70
2017-10-15T05:56:21.386Z,91.70
2017-10-15T05:58:48.890Z,91.70
2017-10-15T06:01:16.386Z,91.70
2017-10-15T06:03:44.647Z,91.70
2017-10-15T06:06:12.143Z,91.60
2017-10-15T06:08:39.650Z,91.70
2017-10-15T06:11:07.160Z,91.60
2017-10-15T06:13:34.657Z,91.60
2017-10-15T06:16:02.155Z,91.70
2017-10-15T06:18:30.474Z,91.50
2017-10-15T06:20:57.950Z,91.40
2017-10-15T06:23:25.438Z,91.30
2017-10-15T06:25:52.909Z,91.40
2017-10-15T06:28:21.186Z,91.60
2017-10-15T06:30:49.634Z,91.60
2017-10-15T06:33:17.122Z,91.60
2017-10-15T06:35:44.587Z,91.40
2017-10-15T06:38:12.055Z,91.80
2017-10-15T06:40:39.510Z,91.70
2017-10-15T06:43:07.061Z,91.50
2017-10-15T06:45:34.595Z,91.60
2017-10-15T06:48:02.892Z,91.70
2017-10-15T06:50:30.363Z,91.70
2017-10-15T06:52:57.823Z,91.60
2017-10-15T06:55:25.322Z,91.70
2017-10-15T06:57:52.818Z,91.70
2017-10-15T07:00:20.286Z,91.80
2017-10-15T07:02:47.767Z,91.80
2017-10-15T07:05:15.263Z,91.80
2017-10-15T07:07:42.778Z,91.80
2017-10-15T07:10:10.421Z,91.80
2017-10-15T07:12:37.977Z,91.80
2017-10-15T07:15:05.514Z,91.80
2017-10-15T07:17:33.092Z,91.60
2017-10-15T07:20:00.631Z,91.70
2017-10-15T07:22:28.115Z,91.50
2017-10-15T07:24:55.658Z,91.60
2017-10-15T07:27:23.297Z,91.50
2017-10-15T07:29:50.775Z,91.40
2017-10-15T07:32:18.345Z,91.10
2017-10-15T07:34:45.806Z,91.10
2017-10-15T07:37:13.359Z,91.00
2017-10-15T07:39:40.918Z,91.00
2017-10-15T07:42:08.485Z,90.60
2017-10-15T07:44:36.039Z,90.50
2017-10-15T07:47:03.571Z,90.50
2017-10-15T07:49:31.058Z,90.70
2017-10-15T07:51:58.618Z,90.30
2017-10-15T07:54:26.158Z,90.40
2017-10-15T07:56:53.719Z,90.40
2017-10-15T07:59:21.287Z,90.30
2017-10-15T08:01:48.855Z,90.20
2017-10-15T08:04:16.430Z,90.40
2017-10-15T08:06:43.972Z,90.30
2017-10-15T08:09:11.527Z,90.30
2017-10-15T08:11:39.182Z,90.20
2017-10-15T08:14:06.762Z,90.30
2017-10-15T08:16:34.314Z,90.20
2017-10-15T08:19:01.930Z,90.30
2017-10-15T08:21:29.434Z,90.30
2017-10-15T08:23:56.959Z,90.10
2017-10-15T08:26:24.442Z,90.10
2017-10-15T08:28:52.003Z,90.20
2017-10-15T08:31:19.668Z,90.20
2017-10-15T08:33:47.232Z,90.20
2017-10-15T08:36:14.784Z,90.10
2017-10-15T08:38:42.332Z,90.10
2017-10-15T08:41:09.839Z,90.30
2017-10-15T08:43:37.349Z,90.40
2017-10-15T08:46:04.810Z,90.50
2017-10-15T08:48:32.289Z,90.70
2017-10-15T08:50:59.742Z,90.80
2017-10-15T08:53:27.243Z,91.20
2017-10-15T08:55:54.743Z,91.10
2017-10-15T08:58:22.275Z,91.10
2017-10-15T09:00:49.760Z,91.20
2017-10-15T09:03:17.322Z,91.20
2017-10-15T09:05:44.782Z,91.30
2017-10-15T09:08:12.322Z,91.30
2017-10-15T09:10:40.309Z,91.20
2017-10-15T09:13:08.272Z,91.20
2017-10-15T09:15:35.807Z,91.10
2017-10-15T09:18:03.295Z,91.10
2017-10-15T09:20:30.833Z,91.10
2017-10-15T09:22:58.655Z,91.00
2017-10-15T09:25:26.164Z,91.00
2017-10-15T09:27:53.722Z,90.90
2017-10-15T09:30:21.269Z,90.80
2017-10-15T09:32:49.568Z,90.70
2017-10-15T09:35:17.100Z,90.70
2017-10-15T09:37:44.575Z,90.80
2017-10-15T09:40:12.118Z,90.80
2017-10-15T09:42:40.401Z,90.70
2017-10-15T09:45:07.972Z,90.60
2017-10-15T09:47:35.531Z,90.60
2017-10-15T09:50:03.070Z,90.30
2017-10-15T09:52:30.550Z,90.20
2017-10-15T09:54:58.047Z,90.10
2017-10-15T09:57:25.542Z,90.00
2017-10-15T09:59:53.104Z,90.00
2017-10-15T10:02:20.694Z,90.00
2017-10-15T10:04:48.185Z,89.90
2017-10-15T10:07:15.783Z,89.80
2017-10-15T10:09:43.307Z,90.00
2017-10-15T10:12:10.796Z,90.00
2017-10-15T10:14:38.560Z,89.50
2017-10-15T10:17:06.196Z,89.20
2017-10-15T10:19:33.701Z,89.50
2017-10-15T10:22:01.242Z,89.20
2017-10-15T10:24:28.820Z,89.00
2017-10-15T10:26:56.841Z,88.90
2017-10-15T10:29:24.412Z,88.60
2017-10-15T10:31:52.015Z,88.60
2017-10-15T10:34:19.535Z,88.60
2017-10-15T10:36:47.028Z,88.40
2017-10-15T10:39:14.562Z,88.40
2017-10-15T10:41:42.854Z,88.60
2017-10-15T10:44:10.602Z,88.50
2017-10-15T10:46:38.186Z,88.50
2017-10-15T10:49:05.689Z,88.40
2017-10-15T10:51:33.202Z,88.10
2017-10-15T10:54:00.663Z,88.40
2017-10-15T10:56:28.183Z,88.30
2017-10-15T10:58:55.763Z,88.10
2017-10-15T11:01:23.316Z,87.80
2017-10-15T11:03:50.858Z,87.90
2017-10-15T11:06:18.352Z,87.70
2017-10-15T11:08:45.876Z,87.70
2017-10-15T11:11:13.364Z,87.60
2017-10-15T11:13:41.211Z,87.50
2017-10-15T11:16:08.902Z,88.00
2017-10-15T11:18:36.408Z,87.50
2017-10-15T11:21:03.899Z,87.60
2017-10-15T11:23:31.376Z,87.30
2017-10-15T11:25:58.891Z,87.00
2017-10-15T11:28:26.486Z,87.10
2017-10-15T11:30:54.042Z,87.20
2017-10-15T11:33:21.698Z,87.30
2017-10-15T11:35:49.314Z,87.10
2017-10-15T11:38:16.827Z,87.00
2017-10-15T11:40:44.391Z,87.30
2017-10-15T11:43:12.024Z,87.10
2017-10-15T11:45:39.613Z,86.90
2017-10-15T11:48:07.148Z,85.80
2017-10-15T11:50:34.682Z,86.10
2017-10-15T11:53:02.163Z,85.90
2017-10-15T11:55:29.631Z,85.80
2017-10-15T11:57:57.099Z,86.10
2017-10-15T12:00:24.559Z,86.40
2017-10-15T12:02:52.020Z,86.40
2017-10-15T12:05:19.543Z,85.70
2017-10-15T12:07:47.831Z,86.20
2017-10-15T12:10:15.325Z,86.20
2017-10-15T12:12:43.019Z,85.70
2017-10-15T12:15:10.496Z,85.50
2017-10-15T12:17:37.970Z,85.90
2017-10-15T12:20:05.438Z,85.80
2017-10-15T12:22:32.919Z,85.70
2017-10-15T12:25:00.418Z,84.80
2017-10-15T12:27:27.882Z,84.80
2017-10-15T12:29:56.162Z,85.10
2017-10-15T12:32:23.737Z,85.10
2017-10-15T12:34:51.263Z,85.20
2017-10-15T12:37:18.739Z,85.10
2017-10-15T12:39:46.226Z,85.00
2017-10-15T12:42:13.776Z,85.10
2017-10-15T12:44:41.303Z,84.70
2017-10-15T12:47:08.796Z,83.60
2017-10-15T12:49:36.337Z,82.60
2017-10-15T12:52:03.896Z,81.90
2017-10-15T12:54:32.286Z,82.20
2017-10-15T12:56:59.947Z,82.10
2017-10-15T12:59:27.499Z,82.40
2017-10-15T13:01:55.072Z,82.30
2017-10-15T13:04:22.579Z,81.80
2017-10-15T13:06:50.085Z,81.80
2017-10-15T13:09:17.536Z,81.30
2017-10-15T13:11:45.063Z,80.70
2017-10-15T13:14:12.555Z,80.90
2017-10-15T13:16:40.097Z,80.80
2017-10-15T13:19:07.679Z,80.20
2017-10-15T13:21:35.292Z,79.50
2017-10-15T13:24:02.850Z,79.60
2017-10-15T13:26:30.342Z,79.20
2017-10-15T13:28:57.920Z,78.60
2017-10-15T13:31:25.406Z,77.90
2017-10-15T13:33:52.954Z,77.90
2017-10-15T13:36:20.484Z,78.20
2017-10-15T13:38:47.991Z,78.20
2017-10-15T13:41:15.608Z,78.30
2017-10-15T13:43:43.254Z,78.10
2017-10-15T13:46:10.822Z,78.20
2017-10-15T13:48:38.374Z,77.70
2017-10-15T13:51:05.862Z,77.70
2017-10-15T13:53:33.380Z,78.10
2017-10-15T13:56:00.954Z,77.40
2017-10-15T13:58:28.617Z,76.90
2017-10-15T14:00:56.168Z,77.30
2017-10-15T14:03:23.707Z,77.80
2017-10-15T14:05:51.195Z,77.90
2017-10-15T14:08:18.746Z,78.20
2017-10-15T14:10:46.258Z,78.10
2017-10-15T14:13:14.795Z,78.10
2017-10-15T14:15:42.355Z,77.60
2017-10-15T14:18:09.907Z,77.50
2017-10-15T14:20:37.466Z,77.80
2017-10-15T14:23:04.932Z,77.70
2017-10-15T14:25:32.583Z,77.80
2017-10-15T14:28:00.319Z,77.60
2017-10-15T14:30:27.952Z,77.80
2017-10-15T14:32:55.454Z,78.20
2017-10-15T14:35:22.982Z,77.90
2017-10-15T14:37:50.567Z,77.80
2017-10-15T14:40:18.103Z,77.90
2017-10-15T14:42:45.583Z,78.20
2017-10-15T14:45:13.155Z,78.00
2017-10-15T14:47:40.696Z,78.10
2017-10-15T14:50:08.246Z,77.80
2017-10-15T14:52:35.733Z,77.80
2017-10-15T14:55:03.239Z,78.00
2017-10-15T14:57:30.755Z,78.30
2017-10-15T14:59:58.315Z,78.10
2017-10-15T15:02:25.770Z,77.80
2017-10-15T15:04:53.338Z,77.90
2017-10-15T15:07:21.001Z,77.80
2017-10-15T15:09:48.603Z,77.90
2017-10-15T15:12:16.214Z,78.00
2017-10-15T15:14:43.867Z,78.10
2017-10-15T15:17:11.440Z,78.50
2017-10-15T15:19:38.978Z,78.80
2017-10-15T15:22:06.551Z,79.20
2017-10-15T15:24:36.236Z,79.50
2017-10-15T15:27:05.524Z,80.30
2017-10-15T15:29:33.307Z,80.70
2017-10-15T15:32:00.957Z,80.90
2017-10-15T15:34:29.464Z,81.00
2017-10-15T15:36:57.077Z,81.50
2017-10-15T15:39:24.580Z,81.70
2017-10-15T15:41:52.236Z,81.90
2017-10-15T15:44:19.781Z,82.30
2017-10-15T15:46:47.331Z,82.60
2017-10-15T15:49:14.888Z,83.10
2017-10-15T15:51:42.771Z,84.00
2017-10-15T15:54:10.440Z,84.70
2017-10-15T15:56:37.908Z,84.90
2017-10-15T15:59:05.457Z,85.10
2017-10-15T16:01:32.975Z,85.20
2017-10-15T16:04:00.452Z,85.50
2017-10-15T16:06:28.056Z,85.70
2017-10-15T16:08:55.576Z,85.80
2017-10-15T16:11:23.062Z,86.10
2017-10-15T16:13:51.311Z,86.30
2017-10-15T16:16:18.834Z,86.50
2017-10-15T16:18:46.383Z,86.70
2017-10-15T16:21:13.863Z,86.90
2017-10-15T16:23:41.346Z,87.00
2017-10-15T16:26:09.630Z,87.30
2017-10-15T16:28:37.183Z,87.50
2017-10-15T16:31:04.655Z,87.70
2017-10-15T16:33:32.206Z,87.90
2017-10-15T16:35:59.717Z,88.20
2017-10-15T16:38:27.215Z,88.40
2017-10-15T16:40:54.695Z,88.70
2017-10-15T16:43:22.255Z,88.90
2017-10-15T16:45:50.002Z,89.10
2017-10-15T16:48:17.564Z,89.40
2017-10-15T16:50:45.115Z,89.60
2017-10-15T16:53:12.627Z,89.80
2017-10-15T16:55:40.144Z,89.90
2017-10-15T16:58:07.658Z,90.10
2017-10-15T17:00:35.208Z,90.10
2017-10-15T17:03:02.756Z,90.10
2017-10-15T17:05:30.266Z,90.20
2017-10-15T17:07:57.769Z,90.30
2017-10-15T17:10:25.279Z,90.40
2017-10-15T17:12:52.822Z,90.40
2017-10-15T17:15:20.962Z,90.50
2017-10-15T17:17:48.463Z,90.60
2017-10-15T17:20:16.742Z,90.70
2017-10-15T17:22:44.259Z,90.70
2017-10-15T17:25:11.754Z,90.80
2017-10-15T17:27:39.219Z,90.80
2017-10-15T17:30:06.790Z,90.80
2017-10-15T17:32:34.331Z,90.80
2017-10-15T17:35:01.814Z,90.90
2017-10-15T17:37:29.347Z,90.90
2017-10-15T17:39:57.626Z,91.00
2017-10-15T17:42:25.111Z,91.00
2017-10-15T17:44:53.384Z,91.10
2017-10-15T17:47:20.922Z,91.10
2017-10-15T17:49:59.038Z,91.00
2017-10-15T17:52:26.584Z,91.00
2017-10-15T17:54:54.143Z,91.10
2017-10-15T17:57:22.111Z,91.20
2017-10-15T17:59:49.694Z,91.20
2017-10-15T18:02:29.127Z,91.20
2017-10-15T18:04:56.683Z,91.20
2017-10-15T18:07:24.523Z,91.30
2017-10-15T18:09:52.011Z,91.30
2017-10-15T18:12:19.717Z,91.30
2017-10-15T18:14:47.516Z,91.30
2017-10-15T18:17:15.151Z,91.40
2017-10-15T18:19:42.635Z,91.40
2017-10-15T18:22:10.215Z,91.40
2017-10-15T18:24:37.771Z,91.50
2017-10-15T18:27:05.324Z,91.50
2017-10-15T18:29:32.857Z,91.40
2017-10-15T18:32:00.332Z,91.40
2017-10-15T18:34:27.975Z,91.50
2017-10-15T18:36:55.677Z,91.50
2017-10-15T18:39:23.383Z,91.50
2017-10-15T18:41:50.886Z,91.50
2017-10-15T18:44:18.422Z,91.50
2017-10-15T18:46:45.903Z,91.50
2017-10-15T18:49:13.446Z,91.50
2017-10-15T18:51:40.907Z,91.40
2017-10-15T18:54:09.170Z,91.40
2017-10-15T18:56:36.662Z,91.40
2017-10-15T18:59:04.203Z,91.40
2017-10-15T19:01:31.815Z,91.40
2017-10-15T19:03:59.307Z,91.40
2017-10-15T19:06:26.822Z,91.50
2017-10-15T19:08:54.332Z,91.40
2017-10-15T19:11:22.579Z,91.50
2017-10-15T19:13:50.086Z,91.40
2017-10-15T19:16:17.573Z,91.50
2017-10-15T19:18:45.058Z,91.50
2017-10-15T19:21:12.554Z,91.50
2017-10-15T19:23:40.023Z,91.60
2017-10-15T19:26:07.535Z,91.60
2017-10-15T19:28:35.134Z,91.60
2017-10-15T19:31:02.653Z,91.60
2017-10-15T19:33:30.149Z,91.60
2017-10-15T19:35:57.747Z,91.60
2017-10-15T19:38:25.238Z,91.60
2017-10-15T19:40:52.756Z,91.60
2017-10-15T19:43:20.287Z,91.70
2017-10-15T19:45:47.807Z,91.70
2017-10-15T19:48:15.270Z,91.60
2017-10-15T19:50:42.745Z,91.70
2017-10-15T19:53:10.211Z,91.70
2017-10-15T19:55:37.711Z,91.60
2017-10-15T19:58:05.354Z,91.70
2017-10-15T20:00:32.879Z,91.70
2017-10-15T20:03:01.158Z,91.70
2017-10-15T20:05:28.675Z,91.70
2017-10-15T20:07:56.164Z,91.70
2017-10-15T20:10:24.563Z,91.70
2017-10-15T20:12:52.146Z,91.60
2017-10-15T20:15:19.643Z,91.60
2017-10-15T20:17:47.126Z,91.60
2017-10-15T20:20:14.659Z,91.70
2017-10-15T20:22:42.321Z,91.70
2017-10-15T20:25:09.796Z,91.70
2017-10-15T20:27:38.071Z,91.70
2017-10-15T20:30:06.435Z,91.60
2017-10-15T20:32:33.914Z,91.60
2017-10-15T20:35:01.493Z,91.50
2017-10-15T20:37:29.024Z,91.50
2017-10-15T20:39:56.677Z,91.50
2017-10-15T20:42:24.209Z,91.60
2017-10-15T20:44:51.706Z,91.60
2017-10-15T20:47:19.268Z,91.50
2017-10-15T20:49:46.751Z,91.70
2017-10-15T20:52:14.242Z,91.60
2017-10-15T20:54:41.740Z,91.70
2017-10-15T20:57:09.250Z,91.70
2017-10-15T20:59:36.751Z,91.90
2017-10-15T21:02:04.264Z,91.80
2017-10-15T21:04:31.766Z,92.10
2017-10-15T21:07:00.038Z,92.10
2017-10-15T21:09:27.518Z,92.10
2017-10-15T21:11:55.033Z,92.10
2017-10-15T21:14:22.524Z,92.00
2017-10-15T21:16:50.063Z,92.00
2017-10-15T21:19:17.551Z,92.10
2017-10-15T21:21:45.081Z,92.10
2017-10-15T21:24:12.575Z,92.00
2017-10-15T21:26:40.098Z,92.20
2017-10-15T21:29:07.566Z,92.10
2017-10-15T21:31:35.836Z,92.30
2017-10-15T21:34:03.318Z,92.20
2017-10-15T21:36:30.812Z,92.20
2017-10-15T21:38:58.267Z,92.30
2017-10-15T21:41:25.771Z,92.20
2017-10-15T21:43:53.435Z,92.20
2017-10-15T21:46:21.660Z,92.30
2017-10-15T21:48:49.157Z,92.20
2017-10-15T21:51:16.611Z,92.20
2017-10-15T21:53:44.079Z,92.50
2017-10-15T21:56:12.570Z,92.40
2017-10-15T21:58:40.066Z,92.30
2017-10-15T22:01:07.550Z,92.40
2017-10-15T22:03:35.038Z,92.40
2017-10-15T22:06:03.307Z,92.40
2017-10-15T22:08:30.824Z,92.40
2017-10-15T22:10:58.299Z,92.40
2017-10-15T22:13:25.779Z,92.50
2017-10-15T22:15:53.256Z,92.50
2017-10-15T22:18:26.651Z,92.40
2017-10-15T22:20:59.682Z,92.50
2017-10-15T22:23:27.182Z,92.40
2017-10-15T22:25:54.652Z,92.40
2017-10-15T22:28:22.961Z,92.40
2017-10-15T22:30:50.440Z,92.40
2017-10-15T22:33:17.926Z,92.40
2017-10-15T22:35:45.390Z,92.40
2017-10-15T22:38:12.896Z,92.50
2017-10-15T22:40:40.383Z,92.50
2017-10-15T22:43:07.865Z,92.50
2017-10-15T22:45:35.357Z,92.40
2017-10-15T22:48:02.855Z,92.40
2017-10-15T22:50:30.339Z,92.40
2017-10-15T22:52:57.829Z,92.20
2017-10-15T22:55:25.320Z,92.40
2017-10-15T22:57:52.787Z,92.30
2017-10-15T23:00:20.287Z,92.40
2017-10-15T23:02:47.734Z,92.40
2017-10-15T23:05:15.228Z,92.40
2017-10-15T23:07:42.726Z,92.40
2017-10-15T23:10:10.982Z,92.40
2017-10-15T23:12:38.478Z,92.40
2017-10-15T23:15:06.844Z,92.40
2017-10-15T23:17:34.315Z,92.40
2017-10-15T23:20:01.771Z,92.40
2017-10-15T23:22:29.255Z,92.30
2017-10-15T23:24:56.745Z,92.20
2017-10-15T23:27:24.235Z,92.20
2017-10-15T23:29:52.493Z,92.30
2017-10-15T23:32:19.963Z,92.30
2017-10-15T23:34:47.438Z,92.30
2017-10-15T23:37:14.911Z,92.30
2017-10-15T23:39:42.372Z,92.30
2017-10-15T23:42:09.867Z,92.20
2017-10-15T23:44:37.327Z,92.30
2017-10-15T23:47:04.795Z,92.30
2017-10-15T23:49:33.037Z,92.30
2017-10-15T23:52:00.500Z,92.30
2017-10-15T23:54:28.000Z,92.50
2017-10-15T23:56:55.496Z,92.40
2017-10-15T23:59:22.956Z,92.40
